Time;durP1;ratioP1;P1;durP2;ratioP2;P2;SDS_P1;SDS_P2;PMS_P1;PMS_P2;Temp;Humidity;BMP_temperature;BMP_pressure;BME280_temperature;BME280_humidity;BME280_pressure;Samples;Min_cycle;Max_cycle;Signal;HPM_P1;HPM_P2
2021/07/26 00:02:42;;;;;;;5.47;4.03;;;;;;;26.22;97.29;101291.34;4994267;28;20053;-73
2021/07/26 00:05:28;;;;;;;7.32;3.65;;;;;;;26.00;98.50;101275.94;4981368;28;20113;-72
2021/07/26 00:08:13;;;;;;;5.47;3.58;;;;;;;25.74;100.00;101276.06;4994107;28;20041;-72
2021/07/26 00:11:07;;;;;;;5.78;3.70;;;;;;;25.74;100.00;101263.50;4994567;28;20038;-71
2021/07/26 00:13:53;;;;;;;5.43;3.47;;;;;;;25.69;100.00;101262.13;4993939;28;20371;-72
2021/07/26 00:16:39;;;;;;;7.40;4.00;;;;;;;25.80;100.00;101271.09;4993965;28;20046;-72
2021/07/26 00:19:24;;;;;;;5.13;3.60;;;;;;;26.07;98.02;101268.28;4997079;28;20034;-72
2021/07/26 00:22:10;;;;;;;8.20;3.70;;;;;;;25.92;100.00;101272.91;4997772;28;20041;-72
2021/07/26 00:24:56;;;;;;;5.20;4.03;;;;;;;25.81;100.00;101277.34;4997760;28;20363;-72
2021/07/26 00:27:42;;;;;;;5.90;3.85;;;;;;;25.82;100.00;101273.69;4997535;28;20105;-72
2021/07/26 00:30:27;;;;;;;7.50;4.07;;;;;;;25.66;100.00;101273.06;4998029;28;20358;-72
2021/07/26 00:34:02;;;;;;;8.27;4.78;;;;;;;25.23;100.00;101269.81;4997619;28;20026;-72
2021/07/26 00:36:59;;;;;;;7.15;4.95;;;;;;;25.08;100.00;101270.03;4998144;28;20029;-72
2021/07/26 00:39:45;;;;;;;9.07;5.25;;;;;;;24.55;100.00;101267.41;4997830;28;20370;-72
2021/07/26 00:42:30;;;;;;;8.48;5.07;;;;;;;24.44;100.00;101265.44;4997902;28;20054;-72
2021/07/26 00:45:16;;;;;;;8.73;5.15;;;;;;;24.72;100.00;101277.88;4997424;28;20026;-72
2021/07/26 00:48:02;;;;;;;8.60;4.65;;;;;;;24.72;100.00;101272.53;4997692;28;20050;-72
2021/07/26 00:50:48;;;;;;;10.45;4.80;;;;;;;24.88;100.00;101274.06;4997187;28;20030;-72
2021/07/26 00:53:34;;;;;;;5.20;4.38;;;;;;;24.78;100.00;101280.13;4997691;28;20026;-72
2021/07/26 00:56:20;;;;;;;10.45;4.65;;;;;;;24.66;100.00;101276.47;4997050;28;20088;-72
2021/07/26 00:59:08;;;;;;;8.38;4.95;;;;;;;24.47;100.00;101278.59;4997504;28;20033;-72
2021/07/26 01:01:54;;;;;;;8.63;5.07;;;;;;;24.09;100.00;101287.41;4997539;28;20462;-72
2021/07/26 01:04:40;;;;;;;9.60;5.03;;;;;;;24.14;100.00;101288.84;4984683;28;20038;-72
2021/07/26 01:07:25;;;;;;;9.45;5.07;;;;;;;23.78;100.00;101287.63;4997262;28;20026;-72
2021/07/26 01:10:11;;;;;;;7.70;4.95;;;;;;;23.76;100.00;101290.41;4983616;28;20517;-72
2021/07/26 01:12:57;;;;;;;6.53;4.30;;;;;;;23.52;100.00;101283.91;4984041;28;20117;-72
2021/07/26 01:15:42;;;;;;;6.50;4.65;;;;;;;23.38;100.00;101291.06;4996765;28;20055;-71
2021/07/26 01:18:38;;;;;;;7.90;4.40;;;;;;;23.49;100.00;101284.06;4997731;28;20022;-73
2021/07/26 01:21:23;;;;;;;4.70;4.20;;;;;;;23.71;100.00;101292.47;4996534;28;20061;-72
2021/07/26 01:24:09;;;;;;;5.97;4.20;;;;;;;23.84;100.00;101288.09;4996793;28;20030;-72
2021/07/26 01:26:55;;;;;;;6.97;3.97;;;;;;;24.10;100.00;101295.34;4997306;28;20096;-72
2021/07/26 01:29:40;;;;;;;19.52;6.30;;;;;;;24.23;100.00;101295.44;4984073;28;20026;-72
2021/07/26 01:32:26;;;;;;;10.00;4.53;;;;;;;23.87;100.00;101287.03;4996231;28;20033;-72
2021/07/26 01:35:12;;;;;;;7.78;4.40;;;;;;;24.23;100.00;101295.44;4996699;28;20026;-72
2021/07/26 01:37:58;;;;;;;9.13;4.10;;;;;;;23.76;100.00;101298.44;4997053;28;20026;-72
2021/07/26 01:40:53;;;;;;;7.00;4.20;;;;;;;23.49;100.00;101300.13;4996899;28;20069;-72
2021/07/26 01:43:50;;;;;;;7.65;4.15;;;;;;;23.70;100.00;101305.97;4996706;28;20026;-72
2021/07/26 01:46:57;;;;;;;6.68;4.25;;;;;;;23.79;100.00;101297.38;4997017;28;20030;-72
2021/07/26 01:50:01;;;;;;;7.70;4.10;;;;;;;23.38;100.00;101300.78;4983783;28;20026;-72
2021/07/26 01:52:48;;;;;;;6.05;4.28;;;;;;;23.05;100.00;101286.75;4996280;28;20277;-72
2021/07/26 01:55:34;;;;;;;8.50;4.13;;;;;;;23.42;100.00;101290.75;4996315;28;20367;-72
2021/07/26 01:58:20;;;;;;;5.15;4.20;;;;;;;23.52;100.00;101293.72;4996074;28;20114;-72
2021/07/26 02:01:06;;;;;;;8.02;4.35;;;;;;;23.24;100.00;101291.88;4996668;28;20058;-72
2021/07/26 02:03:51;;;;;;;8.30;4.30;;;;;;;23.18;100.00;101282.38;4996235;28;20027;-72
2021/07/26 02:06:37;;;;;;;6.00;4.57;;;;;;;23.07;100.00;101276.81;4996324;28;20034;-71
2021/07/26 02:09:23;;;;;;;6.78;4.60;;;;;;;23.18;100.00;101281.50;4995795;28;20096;-72
2021/07/26 02:12:09;;;;;;;6.35;4.55;;;;;;;23.44;100.00;101276.31;4996249;28;20403;-72
2021/07/26 02:14:54;;;;;;;8.23;4.18;;;;;;;23.79;100.00;101282.16;4995838;28;20517;-72
2021/07/26 02:17:40;;;;;;;7.40;4.30;;;;;;;23.81;100.00;101280.25;4995681;28;20050;-73
2021/07/26 02:20:26;;;;;;;6.65;4.38;;;;;;;23.80;100.00;101275.88;4982520;28;20027;-72
2021/07/26 02:23:12;;;;;;;6.45;4.68;;;;;;;23.56;100.00;101265.81;4996677;28;20031;-72
2021/07/26 02:25:57;;;;;;;7.93;4.53;;;;;;;23.89;100.00;101264.56;4995838;28;20041;-72
2021/07/26 02:28:43;;;;;;;9.23;4.80;;;;;;;23.66;100.00;101265.16;4996274;28;20022;-73
2021/07/26 02:31:29;;;;;;;7.25;5.05;;;;;;;23.60;100.00;101270.91;4995871;28;20451;-72
2021/07/26 02:34:15;;;;;;;6.50;4.80;;;;;;;23.55;100.00;101265.00;4982196;28;20092;-72
2021/07/26 02:37:00;;;;;;;9.27;5.20;;;;;;;23.38;100.00;101261.63;4995773;28;20034;-73
2021/07/26 02:39:46;;;;;;;9.57;4.82;;;;;;;23.69;100.00;101264.09;4995131;28;20033;-73
2021/07/26 02:42:32;;;;;;;7.55;4.68;;;;;;;23.76;100.00;101260.09;4995176;28;20053;-72
2021/07/26 02:45:18;;;;;;;7.32;5.03;;;;;;;23.17;100.00;101250.38;4995102;28;20048;-72
2021/07/26 02:48:04;;;;;;;9.00;5.25;;;;;;;23.42;100.00;101262.19;4982393;28;20030;-73
2021/07/26 02:50:49;;;;;;;7.28;4.60;;;;;;;23.36;100.00;101269.75;4995625;28;20026;-72
2021/07/26 02:53:35;;;;;;;6.93;4.78;;;;;;;23.38;100.00;101271.38;4995382;28;20026;-72
2021/07/26 02:56:21;;;;;;;9.82;5.05;;;;;;;23.55;100.00;101270.34;4994999;28;20125;-73
2021/07/26 02:59:07;;;;;;;8.38;5.30;;;;;;;23.22;100.00;101281.28;4982120;28;20438;-73
2021/07/26 03:01:52;;;;;;;8.27;4.80;;;;;;;23.42;100.00;101279.22;4994897;28;20101;-73
2021/07/26 03:04:38;;;;;;;7.43;5.13;;;;;;;23.36;100.00;101280.44;4982181;28;20042;-72
2021/07/26 03:07:24;;;;;;;7.60;4.63;;;;;;;23.40;100.00;101285.50;4995181;28;20030;-73
2021/07/26 03:10:11;;;;;;;6.70;4.30;;;;;;;23.37;100.00;101284.81;4995127;28;20117;-72
2021/07/26 03:12:56;;;;;;;9.40;4.70;;;;;;;23.39;100.00;101280.25;4996262;28;20059;-72
2021/07/26 03:15:42;;;;;;;6.28;4.50;;;;;;;23.24;100.00;101294.56;4994090;28;20065;-72
2021/07/26 03:18:28;;;;;;;8.52;4.68;;;;;;;22.85;100.00;101303.09;4994680;28;20026;-71
2021/07/26 03:21:15;;;;;;;7.85;4.93;;;;;;;23.07;100.00;101300.88;4994348;28;20118;-72
2021/07/26 03:24:01;;;;;;;9.32;5.20;;;;;;;22.92;100.00;101291.13;4994689;28;20034;-72
2021/07/26 03:26:46;;;;;;;6.93;4.60;;;;;;;22.81;100.00;101309.59;4994296;28;20026;-72
2021/07/26 03:29:32;;;;;;;6.82;5.07;;;;;;;22.89;100.00;101309.13;4994621;28;20040;-72
2021/07/26 03:32:18;;;;;;;8.50;5.18;;;;;;;23.00;100.00;101315.56;4994197;28;20451;-72
2021/07/26 03:35:04;;;;;;;6.07;4.60;;;;;;;22.94;100.00;101321.25;4994614;28;20023;-72
2021/07/26 03:37:51;;;;;;;7.05;4.90;;;;;;;23.16;100.00;101313.69;4994350;28;20045;-72
2021/07/26 03:40:37;;;;;;;7.72;4.50;;;;;;;22.99;100.00;101318.34;4994789;28;20109;-72
2021/07/26 03:43:23;;;;;;;5.30;4.80;;;;;;;22.77;100.00;101329.41;4994425;28;20473;-73
2021/07/26 03:46:09;;;;;;;9.25;4.80;;;;;;;22.99;100.00;101319.19;4994188;28;20023;-73
2021/07/26 03:48:54;;;;;;;8.65;5.15;;;;;;;22.97;100.00;101326.44;4994280;28;20022;-72
2021/07/26 03:51:40;;;;;;;14.15;4.97;;;;;;;22.95;100.00;101339.00;4993917;28;20089;-73
2021/07/26 03:54:26;;;;;;;8.80;4.93;;;;;;;23.24;100.00;101340.00;4998329;28;20030;-73
2021/07/26 03:57:12;;;;;;;10.18;4.85;;;;;;;22.95;100.00;101339.00;4999172;28;20418;-73
2021/07/26 03:59:57;;;;;;;10.90;5.47;;;;;;;23.21;100.00;101334.84;4998996;28;20473;-73
2021/07/26 04:02:48;;;;;;;11.32;4.88;;;;;;;22.91;100.00;101352.66;4998027;28;20034;-72
2021/07/26 04:08:27;;;;;;;9.45;5.32;;;;;;;23.29;100.00;101348.63;4998418;28;20113;-73
2021/07/26 04:11:19;;;;;;;9.73;4.85;;;;;;;23.12;100.00;101351.41;4999108;28;20522;-72
2021/07/26 04:14:07;;;;;;;12.10;5.13;;;;;;;23.52;100.00;101353.44;4998555;28;20037;-72
2021/07/26 04:16:52;;;;;;;8.10;5.07;;;;;;;23.85;100.00;101355.84;4997840;28;20042;-72
2021/07/26 04:19:38;;;;;;;9.85;5.45;;;;;;;24.26;100.00;101359.53;4997995;28;20113;-72
2021/07/26 04:22:24;;;;;;;7.38;5.03;;;;;;;24.31;100.00;101363.59;4997655;28;20018;-73
2021/07/26 04:25:10;;;;;;;12.00;5.88;;;;;;;24.10;100.00;101364.13;4997899;28;20026;-72
2021/07/26 04:27:56;;;;;;;8.95;5.10;;;;;;;24.24;100.00;101362.28;4997422;28;20069;-72
2021/07/26 04:30:41;;;;;;;16.83;6.22;;;;;;;24.53;100.00;101360.41;4998652;28;20122;-73
2021/07/26 04:33:27;;;;;;;10.27;5.30;;;;;;;24.29;100.00;101356.63;4997434;28;20042;-73
2021/07/26 04:36:13;;;;;;;8.43;5.28;;;;;;;24.42;100.00;101354.88;4997380;28;20029;-72
2021/07/26 04:38:59;;;;;;;7.68;5.25;;;;;;;24.69;100.00;101356.66;4997345;28;20173;-72
2021/07/26 04:41:44;;;;;;;12.60;5.57;;;;;;;24.85;100.00;101356.50;4984544;28;20022;-72
2021/07/26 04:44:30;;;;;;;11.70;5.45;;;;;;;24.56;100.00;101363.78;4997203;28;20030;-72
2021/07/26 04:47:16;;;;;;;11.30;5.07;;;;;;;24.55;100.00;101355.81;4997402;28;20414;-72
2021/07/26 04:50:03;;;;;;;11.88;5.15;;;;;;;24.73;100.00;101368.91;4984017;28;20378;-72
2021/07/26 04:52:49;;;;;;;10.82;5.53;;;;;;;25.05;100.00;101364.09;4984418;28;20022;-72
2021/07/26 04:55:35;;;;;;;8.98;5.57;;;;;;;24.69;100.00;101367.41;4997480;28;20404;-72
2021/07/26 04:58:20;;;;;;;11.07;6.20;;;;;;;24.37;100.00;101365.91;4984149;28;20030;-72
2021/07/26 05:01:07;;;;;;;13.27;6.38;;;;;;;24.55;100.00;101371.91;4997592;28;20022;-73
2021/07/26 05:03:52;;;;;;;13.13;5.78;;;;;;;25.00;100.00;101366.22;4996469;28;20026;-72
2021/07/26 05:06:38;;;;;;;13.65;6.10;;;;;;;25.04;100.00;101373.09;4997250;28;20026;-73
2021/07/26 05:09:24;;;;;;;12.85;6.68;;;;;;;25.09;100.00;101370.97;4996619;28;20030;-72
2021/07/26 05:12:14;;;;;;;13.05;6.20;;;;;;;25.05;100.00;101374.81;4996697;28;20037;-72
2021/07/26 05:15:00;;;;;;;13.05;5.78;;;;;;;24.93;100.00;101373.81;4996744;28;20355;-72
2021/07/26 05:17:46;;;;;;;10.05;5.50;;;;;;;25.27;100.00;101383.16;4997620;28;20112;-72
2021/07/26 05:20:32;;;;;;;8.05;5.30;;;;;;;25.43;100.00;101379.34;4997261;28;20443;-72
2021/07/26 05:23:17;;;;;;;9.80;6.25;;;;;;;25.19;100.00;101378.28;4996708;28;20043;-72
2021/07/26 05:26:07;;;;;;;17.13;7.05;;;;;;;25.11;100.00;101377.09;4996757;28;20061;-72
2021/07/26 05:28:53;;;;;;;16.23;7.05;;;;;;;25.14;100.00;101384.91;4997006;28;20034;-72
2021/07/26 05:31:38;;;;;;;10.90;6.13;;;;;;;24.91;100.00;101393.66;4996624;28;20034;-72
2021/07/26 05:34:24;;;;;;;13.60;6.70;;;;;;;25.44;100.00;101393.63;4996404;28;20038;-72
2021/07/26 05:37:11;;;;;;;11.88;6.55;;;;;;;25.81;100.00;101392.81;4982184;28;20022;-72
2021/07/26 05:39:57;;;;;;;24.27;8.13;;;;;;;25.56;100.00;101400.84;4996346;28;20048;-72
2021/07/26 05:42:42;;;;;;;13.73;7.13;;;;;;;25.54;100.00;101409.00;4984179;28;20038;-72
2021/07/26 05:45:28;;;;;;;13.77;7.03;;;;;;;25.67;100.00;101414.38;4995995;28;20030;-72
2021/07/26 05:48:14;;;;;;;13.65;7.18;;;;;;;25.61;100.00;101415.66;4996457;28;20030;-73
2021/07/26 05:51:00;;;;;;;14.52;6.50;;;;;;;25.74;100.00;101410.31;4995928;28;20430;-74
2021/07/26 05:53:45;;;;;;;16.92;6.97;;;;;;;25.81;100.00;101408.91;4983472;28;20026;-72
2021/07/26 05:56:37;;;;;;;15.90;6.72;;;;;;;25.90;100.00;101408.28;4996970;28;20363;-72
2021/07/26 05:59:23;;;;;;;21.10;6.00;;;;;;;25.20;100.00;101416.72;4982678;28;20037;-72
2021/07/26 06:02:09;;;;;;;14.85;6.45;;;;;;;25.37;100.00;101416.47;4996598;28;20032;-73
2021/07/26 06:04:55;;;;;;;13.93;6.18;;;;;;;25.74;100.00;101416.53;4995280;28;20146;-73
2021/07/26 06:07:41;;;;;;;13.25;6.45;;;;;;;25.81;100.00;101414.28;4984049;28;20374;-73
2021/07/26 06:10:26;;;;;;;13.20;6.72;;;;;;;25.31;100.00;101414.22;4995781;28;20045;-73
2021/07/26 06:13:12;;;;;;;14.43;6.43;;;;;;;25.82;100.00;101416.00;4995727;28;20034;-72
2021/07/26 06:15:59;;;;;;;9.77;5.60;;;;;;;26.05;100.00;101416.16;4994764;28;20062;-73
2021/07/26 06:18:45;;;;;;;14.13;5.93;;;;;;;26.18;100.00;101416.13;4982593;28;20467;-72
2021/07/26 06:21:31;;;;;;;8.73;5.45;;;;;;;25.98;100.00;101430.09;4982811;28;20462;-72
2021/07/26 06:24:20;;;;;;;9.90;5.30;;;;;;;25.70;100.00;101423.09;4996581;28;20042;-72
2021/07/26 06:27:06;;;;;;;9.55;5.90;;;;;;;26.21;100.00;101429.38;4995841;28;20117;-73
2021/07/26 06:29:53;;;;;;;9.02;5.43;;;;;;;26.20;100.00;101419.59;4995660;28;20408;-73
2021/07/26 06:32:38;;;;;;;12.02;5.72;;;;;;;26.40;100.00;101433.31;4995018;28;20034;-73
2021/07/26 06:35:24;;;;;;;13.20;6.10;;;;;;;26.66;100.00;101436.84;4995989;28;20048;-73
2021/07/26 06:38:10;;;;;;;9.15;5.47;;;;;;;26.14;100.00;101428.94;4995054;28;20022;-73
2021/07/26 06:40:56;;;;;;;8.15;5.15;;;;;;;26.49;100.00;101421.03;4995119;28;20467;-73
2021/07/26 06:43:42;;;;;;;9.55;5.25;;;;;;;26.40;100.00;101419.88;4994949;28;20034;-72
2021/07/26 06:46:28;;;;;;;11.25;5.18;;;;;;;27.01;100.00;101424.34;4995464;28;20048;-71
2021/07/26 06:49:15;;;;;;;10.68;5.00;;;;;;;27.18;100.00;101432.03;4995013;28;20029;-72
2021/07/26 06:52:02;;;;;;;11.38;5.82;;;;;;;26.84;100.00;101430.97;4994735;28;20041;-73
2021/07/26 06:54:48;;;;;;;11.25;4.90;;;;;;;27.38;100.00;101431.41;4994914;28;20026;-73
2021/07/26 06:57:34;;;;;;;9.85;5.50;;;;;;;27.13;100.00;101428.81;4982039;28;20084;-73
2021/07/26 07:00:20;;;;;;;17.48;5.40;;;;;;;27.49;100.00;101426.91;4982283;28;20386;-72
2021/07/26 07:03:06;;;;;;;10.85;5.35;;;;;;;27.47;98.78;101425.31;4995300;28;20105;-73
2021/07/26 07:05:59;;;;;;;11.93;5.00;;;;;;;28.01;98.45;101428.31;4996155;28;20049;-73
2021/07/26 07:08:47;;;;;;;11.20;5.10;;;;;;;27.98;95.41;101432.09;4995784;28;20037;-70
2021/07/26 07:11:33;;;;;;;9.27;5.03;;;;;;;28.16;94.38;101433.34;4995577;28;20466;-73
2021/07/26 07:14:19;;;;;;;11.35;5.50;;;;;;;28.41;92.00;101434.94;4981541;28;20026;-73
2021/07/26 07:17:08;;;;;;;10.27;5.13;;;;;;;28.42;92.63;101448.34;4982092;28;20081;-70
2021/07/26 07:19:54;;;;;;;9.60;5.40;;;;;;;28.53;88.60;101448.31;4994769;28;20092;-70
2021/07/26 07:22:39;;;;;;;12.60;5.32;;;;;;;28.60;96.45;101454.94;4995499;28;20034;-70
2021/07/26 07:25:25;;;;;;;8.65;4.90;;;;;;;28.37;86.67;101445.09;4995316;28;20057;-73
2021/07/26 07:28:11;;;;;;;30.75;5.80;;;;;;;28.49;92.80;101436.06;4995001;28;20034;-73
2021/07/26 07:30:57;;;;;;;34.22;6.95;;;;;;;28.29;97.99;101439.47;4994911;28;20092;-72
2021/07/26 07:33:43;;;;;;;11.95;5.25;;;;;;;28.89;94.81;101439.94;4994953;28;20034;-71
2021/07/26 07:36:33;;;;;;;7.97;4.82;;;;;;;28.74;92.69;101441.22;4981682;28;20367;-74
2021/07/26 07:39:19;;;;;;;9.23;4.93;;;;;;;28.99;89.29;101443.59;4995644;28;20351;-71
2021/07/26 07:42:05;;;;;;;13.93;5.03;;;;;;;29.44;86.67;101442.50;4994345;28;20022;-71
2021/07/26 07:44:52;;;;;;;10.65;5.65;;;;;;;28.84;89.47;101433.19;4993817;28;20501;-72
2021/07/26 07:47:39;;;;;;;10.48;4.97;;;;;;;28.97;87.07;101439.31;4994235;28;20026;-72
2021/07/26 07:50:25;;;;;;;9.65;5.32;;;;;;;28.85;88.29;101443.03;4980206;28;20078;-72
2021/07/26 07:53:11;;;;;;;16.75;5.43;;;;;;;29.15;89.21;101448.63;4981816;28;20018;-72
2021/07/26 07:55:56;;;;;;;12.63;5.65;;;;;;;29.50;85.27;101444.66;4994021;28;20482;-72
2021/07/26 07:58:43;;;;;;;12.77;6.20;;;;;;;30.04;78.07;101441.81;4995098;28;20034;-73
2021/07/26 08:01:30;;;;;;;9.77;5.80;;;;;;;30.07;79.83;101447.81;4981987;28;20363;-73
2021/07/26 08:04:16;;;;;;;9.63;5.80;;;;;;;29.87;83.07;101442.41;4981053;28;20034;-74
2021/07/26 08:07:03;;;;;;;12.02;6.28;;;;;;;30.50;80.49;101450.34;4994992;28;20073;-74
2021/07/26 08:09:48;;;;;;;11.63;5.35;;;;;;;30.77;78.73;101456.88;4980905;28;20037;-72
2021/07/26 08:12:34;;;;;;;6.88;4.80;;;;;;;30.33;76.98;101448.25;4994891;28;20455;-73
2021/07/26 08:15:20;;;;;;;9.63;5.60;;;;;;;30.67;79.43;101446.97;4994273;28;20362;-74
2021/07/26 08:18:06;;;;;;;7.47;5.10;;;;;;;30.71;76.80;101446.63;4994879;28;20347;-73
2021/07/26 08:20:52;;;;;;;7.75;5.20;;;;;;;31.13;75.25;101450.81;4994246;28;20063;-73
2021/07/26 08:23:38;;;;;;;11.57;4.85;;;;;;;31.30;71.41;101449.31;4994980;28;20117;-72
2021/07/26 08:26:24;;;;;;;9.18;5.00;;;;;;;31.58;70.95;101444.91;4993547;28;20023;-73
2021/07/26 08:29:10;;;;;;;10.80;5.00;;;;;;;31.90;69.25;101434.63;4994086;28;20365;-73
2021/07/26 08:31:55;;;;;;;8.88;4.85;;;;;;;32.37;61.78;101441.75;4994088;28;20022;-72
2021/07/26 08:34:42;;;;;;;9.73;4.90;;;;;;;31.92;66.83;101438.88;4994664;28;20089;-72
2021/07/26 08:37:29;;;;;;;9.98;5.05;;;;;;;31.87;67.21;101437.59;4994228;28;20121;-73
2021/07/26 08:40:15;;;;;;;10.80;4.93;;;;;;;31.68;68.21;101440.31;4996989;28;20117;-73
2021/07/26 08:43:13;;;;;;;10.05;5.72;;;;;;;31.84;66.62;101433.34;4985432;28;20058;-72
2021/07/26 08:46:02;;;;;;;7.47;5.10;;;;;;;32.24;61.20;101438.50;4996867;28;20109;-72
2021/07/26 08:48:48;;;;;;;9.50;4.82;;;;;;;32.63;60.64;101438.25;4997159;28;20109;-71
2021/07/26 08:51:34;;;;;;;7.32;5.15;;;;;;;32.65;61.44;101435.34;4997057;28;20049;-73
2021/07/26 08:54:21;;;;;;;8.00;4.78;;;;;;;33.13;56.73;101441.38;4998891;28;20030;-74
2021/07/26 08:57:14;;;;;;;7.45;5.07;;;;;;;33.02;54.29;101437.03;4997057;28;20030;-74
2021/07/26 09:00:00;;;;;;;10.35;6.05;;;;;;;33.26;53.48;101433.72;4997932;28;20161;-71
2021/07/26 09:02:52;;;;;;;11.38;5.53;;;;;;;33.20;52.33;101435.19;4983901;28;20427;-72
2021/07/26 09:05:38;;;;;;;9.98;5.00;;;;;;;33.10;51.08;101441.69;4984159;28;20375;-71
2021/07/26 09:08:31;;;;;;;15.10;5.25;;;;;;;33.23;51.02;101434.03;4996631;28;20034;-72
2021/07/26 09:11:17;;;;;;;7.68;5.15;;;;;;;33.32;49.39;101430.41;4997600;28;20114;-71
2021/07/26 09:14:02;;;;;;;15.85;5.38;;;;;;;33.43;48.98;101436.44;4983602;28;20018;-73
2021/07/26 09:16:56;;;;;;;10.90;5.30;;;;;;;32.98;48.82;101443.75;4997173;28;20062;-73
2021/07/26 09:20:00;;;;;;;6.55;5.00;;;;;;;32.92;49.52;101433.53;4997423;28;20092;-72
2021/07/26 09:22:47;;;;;;;10.07;4.53;;;;;;;33.04;46.73;101434.16;4983757;28;20022;-71
2021/07/26 09:25:32;;;;;;;9.70;5.05;;;;;;;33.50;48.37;101429.38;4997621;28;20418;-74
2021/07/26 09:28:22;;;;;;;8.10;5.00;;;;;;;32.08;50.06;101420.16;4996841;28;20096;-71
2021/07/26 09:31:08;;;;;;;9.45;4.68;;;;;;;32.38;49.45;101419.91;4997265;28;20054;-71
2021/07/26 09:33:54;;;;;;;6.88;4.50;;;;;;;32.66;48.54;101418.09;4996279;28;20030;-72
2021/07/26 09:36:41;;;;;;;9.32;4.80;;;;;;;33.39;49.37;101413.31;4996660;28;20041;-70
2021/07/26 09:39:29;;;;;;;7.70;4.97;;;;;;;33.11;47.60;101417.06;4996735;28;20438;-70
2021/07/26 09:42:26;;;;;;;9.30;4.80;;;;;;;33.02;44.98;101411.75;4996953;28;20359;-69
2021/07/26 09:45:26;;;;;;;7.85;4.60;;;;;;;33.64;43.91;101420.69;4983063;28;20030;-70
2021/07/26 09:48:14;;;;;;;8.18;4.78;;;;;;;33.45;44.72;101414.53;4997199;28;20395;-71
2021/07/26 09:51:03;;;;;;;12.48;4.50;;;;;;;33.48;46.53;101416.97;4981960;28;20026;-71
2021/07/26 09:53:50;;;;;;;10.38;5.18;;;;;;;33.72;45.52;101403.56;4996640;28;20415;-70
2021/07/26 09:56:37;;;;;;;5.10;4.00;;;;;;;33.17;42.67;101421.03;4982578;28;20030;-72
2021/07/26 09:59:24;;;;;;;6.15;4.18;;;;;;;33.25;44.39;101415.69;4983151;28;20030;-72
2021/07/26 10:02:13;;;;;;;10.30;5.28;;;;;;;33.55;44.86;101412.59;4995977;28;20521;-73
2021/07/26 10:05:03;;;;;;;7.55;4.45;;;;;;;33.78;43.91;101398.34;4996657;28;20026;-70
2021/07/26 10:07:52;;;;;;;5.63;4.07;;;;;;;33.27;43.24;101394.66;4995593;28;20023;-70
2021/07/26 10:10:41;;;;;;;11.15;4.63;;;;;;;32.87;41.65;101402.41;4995975;28;20508;-70
2021/07/26 10:13:28;;;;;;;6.72;5.07;;;;;;;33.10;40.44;101406.41;4996116;28;20074;-70
2021/07/26 10:16:16;;;;;;;7.95;5.35;;;;;;;33.03;43.64;101399.88;4995978;28;20494;-70
2021/07/26 10:19:02;;;;;;;9.20;4.30;;;;;;;33.35;43.13;101398.31;4982447;28;20045;-73
2021/07/26 10:21:55;;;;;;;6.07;4.30;;;;;;;33.51;41.83;101400.34;4995458;28;20060;-73
2021/07/26 10:24:48;;;;;;;9.50;4.10;;;;;;;33.16;43.04;101386.75;4982433;28;20101;-73
2021/07/26 10:27:36;;;;;;;8.35;4.28;;;;;;;33.09;43.60;101386.50;4995987;28;20026;-73
2021/07/26 10:30:35;;;;;;;9.68;4.70;;;;;;;32.77;45.19;101382.56;4996478;28;20029;-71
2021/07/26 10:33:21;;;;;;;7.00;5.03;;;;;;;33.31;44.21;101385.19;4995861;28;20058;-70
2021/07/26 10:36:07;;;;;;;9.88;4.85;;;;;;;33.09;45.01;101388.38;4996180;28;20365;-72
2021/07/26 10:38:54;;;;;;;11.90;4.40;;;;;;;32.97;43.68;101379.59;4995631;28;20030;-72
2021/07/26 10:41:43;;;;;;;7.55;4.00;;;;;;;32.90;44.98;101374.94;4983390;28;20348;-73
2021/07/26 10:44:29;;;;;;;8.32;4.55;;;;;;;33.28;44.95;101371.91;4995133;28;20026;-73
2021/07/26 10:47:15;;;;;;;7.85;4.38;;;;;;;32.94;44.98;101370.91;4995703;28;20085;-73
2021/07/26 10:50:09;;;;;;;7.85;4.40;;;;;;;33.21;44.21;101365.38;4982271;28;20041;-71
2021/07/26 10:52:55;;;;;;;6.32;3.88;;;;;;;33.00;43.63;101357.56;4982735;28;20027;-71
2021/07/26 10:56:00;;;;;;;5.50;4.00;;;;;;;32.47;45.28;101364.78;4995381;28;20026;-73
2021/07/26 10:59:02;;;;;;;4.97;3.90;;;;;;;32.78;44.09;101359.84;4995707;28;20034;-73
2021/07/26 11:02:01;;;;;;;7.30;3.90;;;;;;;33.13;43.39;101363.47;4996007;28;20026;-70
2021/07/26 11:04:53;;;;;;;10.00;4.82;;;;;;;33.50;43.61;101366.00;4995889;28;20049;-70
2021/07/26 11:07:42;;;;;;;6.47;4.38;;;;;;;34.29;42.15;101375.72;4996382;28;20054;-72
2021/07/26 11:10:46;;;;;;;6.65;3.95;;;;;;;34.24;41.47;101373.47;4995108;28;20041;-73
2021/07/26 11:13:47;;;;;;;8.65;4.22;;;;;;;33.93;41.51;101369.59;4994927;28;20366;-73
2021/07/26 11:16:51;;;;;;;8.40;3.88;;;;;;;33.46;40.15;101361.88;4994615;28;20176;-73
2021/07/26 11:20:05;;;;;;;8.02;4.00;;;;;;;34.16;42.86;101365.28;4995057;28;20076;-73
2021/07/26 11:22:48;;;;;;;6.75;4.40;;;;;;;34.02;41.26;101362.31;4995265;28;20117;-74
2021/07/26 11:25:35;;;;;;;5.93;3.60;;;;;;;33.75;41.28;101352.44;4994346;28;20033;-73
2021/07/26 11:28:22;;;;;;;7.25;3.90;;;;;;;34.02;38.98;101357.72;4994971;28;20467;-73
2021/07/26 11:31:08;;;;;;;6.70;3.65;;;;;;;34.08;40.69;101358.97;4994345;28;20034;-73
2021/07/26 11:34:07;;;;;;;12.73;3.97;;;;;;;34.01;39.19;101355.16;4994334;28;20023;-73
2021/07/26 11:37:10;;;;;;;6.53;3.60;;;;;;;34.29;38.61;101362.97;4994738;28;20029;-73
2021/07/26 11:39:58;;;;;;;7.18;4.20;;;;;;;33.93;39.48;101366.00;4981075;28;20093;-73
2021/07/26 11:42:45;;;;;;;5.25;3.72;;;;;;;34.01;38.82;101361.47;4994527;28;20038;-73
2021/07/26 11:45:31;;;;;;;8.25;3.83;;;;;;;33.93;38.22;101363.28;4980900;28;20030;-73
2021/07/26 11:48:26;;;;;;;7.30;4.90;;;;;;;33.77;38.86;101358.56;4994870;28;20374;-73
2021/07/26 11:51:30;;;;;;;5.72;4.07;;;;;;;34.51;38.28;101367.00;4994650;28;20018;-73
2021/07/26 11:54:15;;;;;;;8.07;3.75;;;;;;;34.14;37.20;101361.00;4995306;28;20421;-73
2021/07/26 11:57:12;;;;;;;8.38;3.90;;;;;;;33.97;37.22;101351.06;4993815;28;20030;-73
2021/07/26 12:00:04;;;;;;;5.95;3.20;;;;;;;34.19;37.75;101351.34;4995056;28;20038;-73
2021/07/26 12:02:50;;;;;;;17.85;4.13;;;;;;;34.52;37.13;101353.22;4993835;28;20018;-73
2021/07/26 12:05:36;;;;;;;4.65;3.13;;;;;;;34.53;35.80;101357.66;4994410;28;20034;-73
2021/07/26 12:08:27;;;;;;;6.35;3.42;;;;;;;34.84;35.75;101355.22;4994906;28;20362;-73
2021/07/26 12:11:18;;;;;;;5.60;3.50;;;;;;;34.95;35.67;101353.00;4995103;28;20037;-73
2021/07/26 12:14:22;;;;;;;4.35;3.78;;;;;;;35.24;34.62;101355.25;4994914;28;20034;-73
2021/07/26 12:17:09;;;;;;;4.28;3.60;;;;;;;35.19;34.26;101363.94;4984814;28;20376;-73
2021/07/26 12:20:04;;;;;;;6.28;3.58;;;;;;;34.79;34.56;101361.13;4997954;28;20109;-73
2021/07/26 12:22:50;;;;;;;4.28;3.50;;;;;;;34.50;34.70;101355.25;4998918;28;20022;-73
2021/07/26 12:25:42;;;;;;;6.32;3.33;;;;;;;34.79;34.21;101355.66;4997727;28;20030;-73
2021/07/26 12:28:45;;;;;;;6.28;3.42;;;;;;;34.78;32.89;101353.97;4998337;28;20026;-73
2021/07/26 12:31:34;;;;;;;5.38;2.92;;;;;;;34.79;31.56;101358.41;4998245;28;20037;-73
2021/07/26 12:34:23;;;;;;;4.85;2.90;;;;;;;34.60;30.37;101338.78;4984342;28;20026;-73
2021/07/26 12:37:09;;;;;;;4.75;3.05;;;;;;;34.50;31.24;101332.63;4997311;28;20030;-72
2021/07/26 12:40:11;;;;;;;5.10;2.92;;;;;;;34.81;30.82;101334.63;4984327;28;20110;-72
2021/07/26 12:43:27;;;;;;;3.45;2.35;;;;;;;34.71;30.06;101328.41;4997305;28;20053;-72
2021/07/26 12:46:12;;;;;;;4.80;2.75;;;;;;;34.79;29.63;101325.72;4997846;28;20485;-72
2021/07/26 12:49:02;;;;;;;5.32;2.22;;;;;;;34.96;28.92;101332.09;4997716;28;20109;-72
2021/07/26 12:51:52;;;;;;;4.75;2.70;;;;;;;34.99;28.91;101327.13;4983838;28;20049;-72
2021/07/26 12:54:43;;;;;;;2.55;2.35;;;;;;;34.48;27.87;101327.34;4997334;28;20482;-73
2021/07/26 12:57:28;;;;;;;4.35;2.53;;;;;;;34.99;28.69;101320.81;4997605;28;20060;-72
2021/07/26 13:00:15;;;;;;;4.85;2.75;;;;;;;35.17;28.59;101318.81;4998280;28;20113;-72